createdAt,value
2022-11-28T00:01:39.500Z,-2.66
2022-11-28T00:04:06.693Z,-2.58
2022-11-28T00:06:37.594Z,-2.91
2022-11-28T00:09:05.108Z,-2.50
2022-11-28T00:11:32.202Z,-2.90
2022-11-28T00:13:59.208Z,-2.79
2022-11-28T00:16:26.351Z,-2.89
2022-11-28T00:18:54.827Z,-2.80
2022-11-28T00:21:23.082Z,-2.55
2022-11-28T00:23:50.291Z,-2.52
2022-11-28T00:26:26.848Z,-2.69
2022-11-28T00:28:55.934Z,-2.63
2022-11-28T00:31:25.287Z,-2.45
2022-11-28T00:33:52.900Z,-2.26
2022-11-28T00:36:20.789Z,-2.57
2022-11-28T00:38:48.739Z,-2.86
2022-11-28T00:41:28.798Z,-2.71
2022-11-28T00:43:56.206Z,-2.54
2022-11-28T00:46:24.017Z,-2.58
2022-11-28T00:48:51.517Z,-2.61
2022-11-28T00:51:19.708Z,-2.85
2022-11-28T00:53:49.109Z,-2.83
2022-11-28T00:56:18.606Z,-2.67
2022-11-28T00:58:45.960Z,-2.56
2022-11-28T01:01:26.285Z,-2.25
2022-11-28T01:03:55.337Z,-2.25
2022-11-28T01:06:31.139Z,-2.58
2022-11-28T01:09:04.984Z,-2.45
2022-11-28T01:11:32.137Z,-2.71
2022-11-28T01:14:01.502Z,-2.73
2022-11-28T01:16:29.209Z,-2.42
2022-11-28T01:18:56.518Z,-3.11
2022-11-28T01:21:24.057Z,-2.95
2022-11-28T01:23:51.367Z,-2.93
2022-11-28T01:26:40.259Z,-3.29
2022-11-28T01:29:08.419Z,-3.50
2022-11-28T01:31:35.950Z,-3.18
2022-11-28T01:34:03.078Z,-2.88
2022-11-28T01:36:30.527Z,-2.89
2022-11-28T01:38:58.054Z,-3.42
2022-11-28T01:41:27.170Z,-3.26
2022-11-28T01:44:13.827Z,-3.46
2022-11-28T01:46:41.270Z,-3.46
2022-11-28T01:49:38.043Z,-3.06
2022-11-28T01:52:12.170Z,-3.03
2022-11-28T01:54:42.059Z,-3.46
2022-11-28T01:57:13.702Z,-3.12
2022-11-28T01:59:46.937Z,-3.44
2022-11-28T02:02:23.202Z,-3.68
2022-11-28T02:04:52.350Z,-3.76
2022-11-28T02:07:20.260Z,-3.26
2022-11-28T02:09:47.295Z,-2.90
2022-11-28T02:12:29.184Z,-2.95
2022-11-28T02:15:37.342Z,-3.60
2022-11-28T02:18:26.030Z,-3.46
2022-11-28T02:21:24.992Z,-3.53
2022-11-28T02:24:21.161Z,-3.87
2022-11-28T02:27:23.243Z,-3.93
2022-11-28T02:30:04.787Z,-3.89
2022-11-28T02:32:31.729Z,-3.79
2022-11-28T02:35:20.917Z,-3.49
2022-11-28T02:38:11.083Z,-3.46
2022-11-28T02:40:53.258Z,-3.54
2022-11-28T02:43:32.659Z,-3.57
2022-11-28T02:45:59.572Z,-3.56
2022-11-28T02:48:51.586Z,-4.07
2022-11-28T02:51:32.087Z,-4.08
2022-11-28T02:54:02.251Z,-3.61
2022-11-28T02:56:29.405Z,-3.57
2022-11-28T02:58:56.486Z,-3.67
2022-11-28T03:01:29.769Z,-3.65
2022-11-28T03:04:02.683Z,-3.73
2022-11-28T03:06:40.457Z,-4.09
2022-11-28T03:09:25.636Z,-3.84
2022-11-28T03:12:37.262Z,-3.75
2022-11-28T03:15:07.604Z,-3.95
2022-11-28T03:18:06.793Z,-3.74
2022-11-28T03:20:51.675Z,-3.87
2022-11-28T03:23:26.736Z,-3.95
2022-11-28T03:26:14.120Z,-4.09
2022-11-28T03:29:22.445Z,-4.08
2022-11-28T03:31:58.491Z,-4.00
2022-11-28T03:34:34.698Z,-4.23
2022-11-28T03:37:11.544Z,-3.99
2022-11-28T03:39:46.825Z,-4.00
2022-11-28T03:42:21.151Z,-4.00
2022-11-28T03:44:54.394Z,-4.20
2022-11-28T03:47:25.397Z,-4.00
2022-11-28T03:49:54.572Z,-3.89
2022-11-28T03:52:32.763Z,-4.00
2022-11-28T03:55:17.572Z,-3.64
2022-11-28T03:57:48.979Z,-3.97
2022-11-28T04:00:17.328Z,-3.61
2022-11-28T04:02:57.515Z,-3.44
2022-11-28T04:05:39.921Z,-3.29
2022-11-28T04:08:29.446Z,-3.22
2022-11-28T04:11:07.428Z,-3.51
2022-11-28T04:13:56.079Z,-3.91
2022-11-28T04:16:38.190Z,-3.94
2022-11-28T04:19:12.913Z,-3.35
2022-11-28T04:21:54.647Z,-3.32
2022-11-28T04:24:27.028Z,-3.19
2022-11-28T04:27:04.340Z,-3.38
2022-11-28T04:29:37.264Z,-3.46
2022-11-28T04:32:06.473Z,-3.33
2022-11-28T04:34:37.466Z,-3.28
2022-11-28T04:37:09.764Z,-3.14
2022-11-28T04:39:40.913Z,-3.61
2022-11-28T04:42:31.037Z,-3.89
2022-11-28T04:45:08.277Z,-3.74
2022-11-28T04:47:35.339Z,-3.56
2022-11-28T04:50:02.390Z,-3.40
2022-11-28T04:52:40.313Z,-3.21
2022-11-28T04:55:22.529Z,-2.88
2022-11-28T04:57:57.281Z,-3.06
2022-11-28T05:00:26.214Z,-3.34
2022-11-28T05:02:55.039Z,-3.42
2022-11-28T05:05:25.618Z,-3.30
2022-11-28T05:07:53.321Z,-3.16
2022-11-28T05:10:20.565Z,-3.28
2022-11-28T05:12:47.619Z,-3.59
2022-11-28T05:15:19.144Z,-3.11
2022-11-28T05:17:46.997Z,-3.30
2022-11-28T05:20:14.929Z,-3.10
2022-11-28T05:22:42.089Z,-3.14
2022-11-28T05:25:09.289Z,-3.38
2022-11-28T05:27:36.756Z,-3.65
2022-11-28T05:30:05.725Z,-3.18
2022-11-28T05:32:33.122Z,-3.40
2022-11-28T05:35:00.202Z,-3.60
2022-11-28T05:37:27.255Z,-3.33
2022-11-28T05:39:54.252Z,-2.82
2022-11-28T05:42:21.721Z,-2.93
2022-11-28T05:44:49.031Z,-2.83
2022-11-28T05:47:16.041Z,-2.46
2022-11-28T05:49:43.995Z,-2.16
2022-11-28T05:52:11.083Z,-2.41
2022-11-28T05:54:38.074Z,-2.91
2022-11-28T05:57:07.228Z,-2.58
2022-11-28T05:59:34.774Z,-2.57
2022-11-28T06:02:01.836Z,-3.02
2022-11-28T06:04:29.002Z,-2.73
2022-11-28T06:06:56.848Z,-2.50
2022-11-28T06:09:26.177Z,-2.81
2022-11-28T06:11:53.456Z,-2.19
2022-11-28T06:14:20.471Z,-1.88
2022-11-28T06:16:47.587Z,-1.90
2022-11-28T06:19:14.668Z,-2.30
2022-11-28T06:21:41.858Z,-2.37
2022-11-28T06:24:10.832Z,-2.07
2022-11-28T06:26:37.840Z,-2.41
2022-11-28T06:29:04.835Z,-2.99
2022-11-28T06:31:31.947Z,-3.50
2022-11-28T06:33:59.424Z,-3.20
2022-11-28T06:36:27.475Z,-3.12
2022-11-28T06:38:54.505Z,-2.82
2022-11-28T06:41:23.122Z,-2.63
2022-11-28T06:43:52.424Z,-2.23
2022-11-28T06:46:21.454Z,-2.50
2022-11-28T06:48:51.268Z,-2.79
2022-11-28T06:51:19.618Z,-2.91
2022-11-28T06:53:46.971Z,-3.25
2022-11-28T06:56:19.080Z,-3.14
2022-11-28T06:58:47.060Z,-3.33
2022-11-28T07:01:19.905Z,-3.09
2022-11-28T07:03:47.740Z,-3.51
2022-11-28T07:06:16.164Z,-3.34
2022-11-28T07:08:43.882Z,-3.44
2022-11-28T07:11:19.769Z,-3.27
2022-11-28T07:13:47.639Z,-2.68
2022-11-28T07:16:28.385Z,-3.58
2022-11-28T07:18:56.678Z,-3.15
2022-11-28T07:21:24.750Z,-3.22
2022-11-28T07:23:52.046Z,-3.16
2022-11-28T07:26:21.477Z,-2.92
2022-11-28T07:28:49.271Z,-2.93
2022-11-28T07:31:19.899Z,-2.64
2022-11-28T07:33:49.697Z,-2.63
2022-11-28T07:36:18.122Z,-3.25
2022-11-28T07:38:53.580Z,-3.33
2022-11-28T07:41:26.042Z,-3.28
2022-11-28T07:43:59.678Z,-2.95
2022-11-28T07:46:27.971Z,-3.10
2022-11-28T07:48:55.775Z,-2.95
2022-11-28T07:51:26.352Z,-2.92
2022-11-28T07:53:53.955Z,-3.31
2022-11-28T07:56:23.771Z,-3.17
2022-11-28T07:58:51.253Z,-3.11
2022-11-28T08:01:19.683Z,-3.30
2022-11-28T08:03:47.312Z,-2.84
2022-11-28T08:06:16.754Z,-2.58
2022-11-28T08:08:45.553Z,-2.28
2022-11-28T08:11:14.381Z,-2.94
2022-11-28T08:13:41.954Z,-2.49
2022-11-28T08:16:14.955Z,-2.37
2022-11-28T08:18:42.731Z,-3.00
2022-11-28T08:21:12.679Z,-2.93
2022-11-28T08:23:40.508Z,-3.08
2022-11-28T08:26:10.184Z,-2.80
2022-11-28T08:28:37.544Z,-2.45
2022-11-28T08:31:13.184Z,-2.52
2022-11-28T08:33:40.510Z,-2.67
2022-11-28T08:36:09.717Z,-3.19
2022-11-28T08:38:37.837Z,-3.52
2022-11-28T08:41:07.990Z,-2.82
2022-11-28T08:43:36.890Z,-2.70
2022-11-28T08:46:09.728Z,-2.95
2022-11-28T08:48:38.043Z,-3.15
2022-11-28T08:51:05.898Z,-3.02
2022-11-28T08:53:33.118Z,-2.40
2022-11-28T08:56:00.376Z,-2.21
2022-11-28T08:58:27.332Z,-1.88
2022-11-28T09:00:54.409Z,-1.91
2022-11-28T09:03:21.516Z,-1.84
2022-11-28T09:05:48.829Z,-1.77
2022-11-28T09:08:17.750Z,-2.59
2022-11-28T09:10:45.681Z,-2.43
2022-11-28T09:13:15.129Z,-2.14
2022-11-28T09:15:45.063Z,-3.05
2022-11-28T09:18:14.290Z,-2.59
2022-11-28T09:20:42.195Z,-2.05
2022-11-28T09:23:09.627Z,-1.86
2022-11-28T09:25:37.886Z,-1.79
2022-11-28T09:28:06.545Z,-1.51
2022-11-28T09:30:34.520Z,-1.26
2022-11-28T09:33:01.701Z,-1.61
2022-11-28T09:35:31.031Z,-1.67
2022-11-28T09:37:59.382Z,-1.91
2022-11-28T09:40:43.287Z,-1.54
2022-11-28T09:43:39.377Z,-1.29
2022-11-28T09:46:11.989Z,-1.74
2022-11-28T09:48:46.081Z,-1.66
2022-11-28T09:51:22.511Z,-1.86
2022-11-28T09:54:04.610Z,-1.89
2022-11-28T09:56:32.073Z,-1.64
2022-11-28T09:59:03.487Z,-1.49
2022-11-28T10:01:54.611Z,-1.27
2022-11-28T10:04:30.615Z,-1.70
2022-11-28T10:07:11.345Z,-1.94
2022-11-28T10:10:07.479Z,-2.03
2022-11-28T10:12:46.317Z,-1.92
2022-11-28T10:15:19.306Z,-1.76
2022-11-28T10:18:10.315Z,-1.72
2022-11-28T10:20:44.735Z,-1.55
2022-11-28T10:23:26.729Z,-1.52
2022-11-28T10:26:02.677Z,-1.63
2022-11-28T10:28:39.607Z,-1.48
2022-11-28T10:31:19.317Z,-2.08
2022-11-28T10:34:07.331Z,-1.75
2022-11-28T10:36:47.787Z,-1.67
2022-11-28T10:39:15.164Z,-1.55
2022-11-28T10:42:14.344Z,-1.36
2022-11-28T10:44:48.693Z,-1.63
2022-11-28T10:47:24.668Z,-1.67
2022-11-28T10:50:20.201Z,-1.41
2022-11-28T10:52:59.195Z,-1.20
2022-11-28T10:55:31.998Z,-1.21
2022-11-28T10:58:47.020Z,-1.14
2022-11-28T11:01:14.625Z,-1.14
2022-11-28T11:03:42.204Z,-1.04
2022-11-28T11:06:09.265Z,-1.20
2022-11-28T11:08:39.037Z,-2.18
2022-11-28T11:11:22.226Z,-2.28
2022-11-28T11:14:09.787Z,-1.65
2022-11-28T11:16:50.602Z,-1.43
2022-11-28T11:19:26.535Z,-1.45
2022-11-28T11:22:14.814Z,-1.93
2022-11-28T11:24:41.801Z,-1.52
2022-11-28T11:27:21.622Z,-2.55
2022-11-28T11:29:52.035Z,-2.77
2022-11-28T11:32:26.875Z,-2.26
2022-11-28T11:34:57.198Z,-2.20
2022-11-28T11:37:36.628Z,-3.16
2022-11-28T11:40:20.710Z,-3.08
2022-11-28T11:43:00.265Z,-3.38
2022-11-28T11:45:33.757Z,-3.30
2022-11-28T11:48:03.562Z,-3.07
2022-11-28T11:50:33.102Z,-3.05
2022-11-28T11:53:19.063Z,-3.32
2022-11-28T11:55:54.920Z,-3.18
2022-11-28T11:58:43.514Z,-2.34
2022-11-28T12:01:13.644Z,-2.56
2022-11-28T12:03:49.292Z,-2.80
2022-11-28T12:06:25.709Z,-3.05
2022-11-28T12:09:00.488Z,-2.45
2022-11-28T12:11:45.593Z,-1.93
2022-11-28T12:14:30.187Z,-1.74
2022-11-28T12:17:46.774Z,-1.55
2022-11-28T12:20:22.452Z,-2.09
2022-11-28T12:22:52.201Z,-1.83
2022-11-28T12:25:44.643Z,-2.19
2022-11-28T12:28:51.654Z,-3.19
2022-11-28T12:31:30.749Z,-3.15
2022-11-28T12:34:06.893Z,-3.27
2022-11-28T12:36:56.816Z,-3.17
2022-11-28T12:39:26.721Z,-2.52
2022-11-28T12:42:03.224Z,-2.27
2022-11-28T12:45:14.669Z,-2.49
2022-11-28T12:47:55.106Z,-3.29
2022-11-28T12:50:42.930Z,-3.20
2022-11-28T12:53:28.013Z,-2.91
2022-11-28T12:56:25.309Z,-2.34
2022-11-28T12:59:02.194Z,-1.95
2022-11-28T13:01:56.838Z,-2.09
2022-11-28T13:04:54.401Z,-2.14
2022-11-28T13:07:27.349Z,-2.37
2022-11-28T13:10:45.465Z,-2.38
2022-11-28T13:13:20.400Z,-2.68
2022-11-28T13:15:56.330Z,-2.96
2022-11-28T13:18:45.794Z,-3.09
2022-11-28T13:21:24.841Z,-2.87
2022-11-28T13:24:02.253Z,-2.56
2022-11-28T13:26:58.854Z,-2.13
2022-11-28T13:29:41.128Z,-2.84
2022-11-28T13:32:13.416Z,-3.01
2022-11-28T13:34:40.874Z,-2.56
2022-11-28T13:40:30.295Z,-2.51
2022-11-28T13:43:34.547Z,-2.57
2022-11-28T13:46:02.466Z,-2.53
2022-11-28T13:48:57.929Z,-2.13
2022-11-28T13:51:31.078Z,-2.22
2022-11-28T13:54:17.601Z,-2.24
2022-11-28T13:56:47.887Z,-2.84
2022-11-28T13:59:25.285Z,-2.40
2022-11-28T14:01:59.345Z,-2.19
2022-11-28T14:04:28.078Z,-2.00
2022-11-28T14:07:07.519Z,-1.66
2022-11-28T14:10:18.251Z,-2.06
2022-11-28T14:13:01.969Z,-1.94
2022-11-28T14:16:08.091Z,-1.80
2022-11-28T14:18:56.832Z,-1.88
2022-11-28T14:21:30.438Z,-2.16
2022-11-28T14:24:26.956Z,-2.16
2022-11-28T14:27:01.186Z,-1.86
2022-11-28T14:29:40.098Z,-1.58
2022-11-28T14:32:30.643Z,-1.62
2022-11-28T14:34:59.895Z,-1.62
2022-11-28T14:37:28.659Z,-1.77
2022-11-28T14:39:58.064Z,-1.65
2022-11-28T14:42:59.079Z,-1.83
2022-11-28T14:45:41.064Z,-1.75
2022-11-28T14:48:22.034Z,-1.75
2022-11-28T14:50:59.037Z,-1.84
2022-11-28T14:53:44.860Z,-1.83
2022-11-28T14:56:15.033Z,-2.46
2022-11-28T14:58:55.324Z,-2.93
2022-11-28T15:01:58.509Z,-2.83
2022-11-28T15:04:50.710Z,-2.85
2022-11-28T15:07:35.563Z,-3.26
2022-11-28T15:10:30.387Z,-3.48
2022-11-28T15:13:28.747Z,-2.92
2022-11-28T15:15:56.030Z,-3.44
2022-11-28T15:18:25.962Z,-3.49
2022-11-28T15:20:58.829Z,-3.51
2022-11-28T15:23:30.429Z,-2.95
2022-11-28T15:25:59.685Z,-2.52
2022-11-28T15:28:28.988Z,-2.50
2022-11-28T15:30:59.409Z,-2.84
2022-11-28T15:33:30.202Z,-2.45
2022-11-28T15:36:02.877Z,-3.50
2022-11-28T15:38:31.808Z,-3.77
2022-11-28T15:41:00.992Z,-3.76
2022-11-28T15:43:30.936Z,-3.92
2022-11-28T15:46:02.569Z,-3.36
2022-11-28T15:48:40.209Z,-3.41
2022-11-28T15:51:08.812Z,-3.02
2022-11-28T15:53:42.494Z,-2.72
2022-11-28T15:56:12.382Z,-2.47
2022-11-28T15:58:42.762Z,-2.39
2022-11-28T16:01:36.226Z,-3.00
2022-11-28T16:04:16.990Z,-3.03
2022-11-28T16:06:50.520Z,-3.32
2022-11-28T16:09:17.461Z,-3.21
2022-11-28T16:11:48.301Z,-3.90
2022-11-28T16:14:22.502Z,-4.13
2022-11-28T16:16:50.584Z,-3.40
2022-11-28T16:19:25.104Z,-2.92
2022-11-28T16:21:58.198Z,-2.64
2022-11-28T16:24:38.591Z,-2.89
2022-11-28T16:27:06.896Z,-3.00
2022-11-28T16:29:36.548Z,-2.57
2022-11-28T16:32:26.374Z,-2.22
2022-11-28T16:34:55.541Z,-3.03
2022-11-28T16:37:26.981Z,-3.39
2022-11-28T16:40:12.997Z,-3.16
2022-11-28T16:42:40.694Z,-3.49
2022-11-28T16:45:17.552Z,-3.50
2022-11-28T16:47:45.872Z,-3.52
2022-11-28T16:50:25.036Z,-3.59
2022-11-28T16:52:57.825Z,-3.96
2022-11-28T16:55:33.959Z,-3.19
2022-11-28T16:58:09.147Z,-2.67
2022-11-28T17:00:39.203Z,-2.82
2022-11-28T17:03:11.649Z,-3.67
2022-11-28T17:05:39.996Z,-2.94
2022-11-28T17:08:08.346Z,-3.27
2022-11-28T17:10:35.857Z,-3.52
2022-11-28T17:13:02.996Z,-3.14
2022-11-28T17:15:30.976Z,-3.66
2022-11-28T17:17:59.412Z,-3.30
2022-11-28T17:20:26.812Z,-3.47
2022-11-28T17:22:56.498Z,-2.96
2022-11-28T17:25:23.564Z,-2.93
2022-11-28T17:27:50.548Z,-3.75
2022-11-28T17:30:19.809Z,-3.79
2022-11-28T17:32:48.099Z,-3.53
2022-11-28T17:35:21.687Z,-2.82
2022-11-28T17:37:49.296Z,-2.36
2022-11-28T17:40:37.738Z,-2.68
2022-11-28T17:43:05.156Z,-2.71
2022-11-28T17:45:35.408Z,-2.75
2022-11-28T17:48:02.633Z,-3.57
2022-11-28T17:50:30.598Z,-3.45
2022-11-28T17:52:57.865Z,-2.92
2022-11-28T17:55:25.553Z,-3.14
2022-11-28T17:57:53.817Z,-3.26
2022-11-28T18:00:21.199Z,-2.99
2022-11-28T18:02:48.435Z,-2.49
2022-11-28T18:05:15.871Z,-2.27
2022-11-28T18:07:43.037Z,-2.00
2022-11-28T18:10:12.662Z,-2.07
2022-11-28T18:12:40.615Z,-1.91
2022-11-28T18:15:11.321Z,-1.78
2022-11-28T18:17:38.775Z,-1.98
2022-11-28T18:20:07.118Z,-2.03
2022-11-28T18:22:34.474Z,-1.85
2022-11-28T18:25:01.794Z,-1.78
2022-11-28T18:27:32.051Z,-1.85
2022-11-28T18:30:00.802Z,-1.78
2022-11-28T18:32:29.527Z,-1.63
2022-11-28T18:34:57.794Z,-1.70
2022-11-28T18:37:27.611Z,-1.71
2022-11-28T18:39:54.667Z,-2.06
2022-11-28T18:42:22.970Z,-1.95
2022-11-28T18:44:50.284Z,-2.01
2022-11-28T18:47:17.565Z,-2.31
2022-11-28T18:49:48.065Z,-2.41
2022-11-28T18:52:18.363Z,-2.70
2022-11-28T18:54:46.247Z,-3.15
2022-11-28T18:57:13.590Z,-3.74
2022-11-28T18:59:40.994Z,-3.85
2022-11-28T19:02:11.304Z,-3.67
2022-11-28T19:04:38.771Z,-3.13
2022-11-28T19:07:05.983Z,-2.74
2022-11-28T19:09:33.099Z,-2.70
2022-11-28T19:12:00.371Z,-2.68
2022-11-28T19:14:28.007Z,-2.73
2022-11-28T19:16:56.839Z,-3.08
2022-11-28T19:19:24.303Z,-2.73
2022-11-28T19:21:51.564Z,-2.36
2022-11-28T19:24:18.746Z,-2.52
2022-11-28T19:26:48.378Z,-2.24
2022-11-28T19:29:15.604Z,-2.15
2022-11-28T19:31:43.482Z,-2.27
2022-11-28T19:34:16.059Z,-2.18
2022-11-28T19:36:47.822Z,-2.37
2022-11-28T19:39:20.488Z,-3.43
2022-11-28T19:41:49.976Z,-2.86
2022-11-28T19:44:20.095Z,-2.65
2022-11-28T19:46:49.329Z,-2.15
2022-11-28T19:49:21.801Z,-2.53
2022-11-28T19:51:50.369Z,-2.47
2022-11-28T19:54:19.850Z,-2.51
2022-11-28T19:56:48.714Z,-2.35
2022-11-28T19:59:17.612Z,-2.65
2022-11-28T20:01:49.046Z,-2.63
2022-11-28T20:04:17.886Z,-2.37
2022-11-28T20:06:45.002Z,-2.14
2022-11-28T20:09:13.854Z,-1.97
2022-11-28T20:11:43.735Z,-1.74
2022-11-28T20:14:14.772Z,-1.55
2022-11-28T20:16:42.172Z,-1.45
2022-11-28T20:19:12.213Z,-1.60
2022-11-28T20:21:39.326Z,-1.55
2022-11-28T20:24:08.347Z,-2.20
2022-11-28T20:26:41.607Z,-2.02
2022-11-28T20:29:12.360Z,-2.69
2022-11-28T20:31:46.354Z,-3.06
2022-11-28T20:34:17.357Z,-2.80
2022-11-28T20:36:45.819Z,-2.42
2022-11-28T20:39:13.400Z,-2.87
2022-11-28T20:41:40.529Z,-3.12
2022-11-28T20:44:07.891Z,-2.61
2022-11-28T20:46:35.779Z,-2.14
2022-11-28T20:49:05.939Z,-1.79
2022-11-28T20:51:34.564Z,-1.76
2022-11-28T20:54:02.829Z,-1.73
2022-11-28T20:56:31.872Z,-2.13
2022-11-28T20:59:00.933Z,-2.05
2022-11-28T21:01:33.196Z,-2.26
2022-11-28T21:04:02.182Z,-2.35
2022-11-28T21:06:29.258Z,-2.07
2022-11-28T21:08:57.411Z,-2.32
2022-11-28T21:11:55.048Z,-2.37
2022-11-28T21:14:15.247Z,-2.03
2022-11-28T21:16:43.824Z,-2.36
2022-11-28T21:19:11.488Z,-2.05
2022-11-28T21:21:40.283Z,-1.65
2022-11-28T21:24:10.842Z,-1.82
2022-11-28T21:26:42.413Z,-2.06
2022-11-28T21:29:12.262Z,-1.96
2022-11-28T21:31:44.117Z,-2.38
2022-11-28T21:34:16.878Z,-2.18
2022-11-28T21:36:44.601Z,-1.91
2022-11-28T21:39:17.519Z,-2.06
2022-11-28T21:41:44.805Z,-2.49
2022-11-28T21:44:13.860Z,-2.77
2022-11-28T21:46:40.893Z,-3.02
2022-11-28T21:49:07.981Z,-2.50
2022-11-28T21:51:39.431Z,-2.93
2022-11-28T21:54:06.510Z,-2.49
2022-11-28T21:56:34.087Z,-2.19
2022-11-28T21:59:01.465Z,-1.93
2022-11-28T22:01:29.128Z,-1.81
2022-11-28T22:04:02.082Z,-1.62
2022-11-28T22:06:31.006Z,-1.59
2022-11-28T22:08:58.445Z,-1.60
2022-11-28T22:11:25.602Z,-1.47
2022-11-28T22:13:52.971Z,-1.34
2022-11-28T22:16:23.459Z,-1.35
2022-11-28T22:18:54.119Z,-1.43
2022-11-28T22:24:08.703Z,-1.40
2022-11-28T22:26:36.130Z,-1.70
2022-11-28T22:29:04.356Z,-2.14
2022-11-28T22:31:32.989Z,-2.40
2022-11-28T22:34:00.358Z,-2.42
2022-11-28T22:36:28.378Z,-2.54
2022-11-28T22:38:57.846Z,-2.72
2022-11-28T22:41:29.268Z,-2.87
2022-11-28T22:44:00.988Z,-3.12
2022-11-28T22:46:30.019Z,-2.76
2022-11-28T22:49:01.812Z,-2.70
2022-11-28T22:51:30.358Z,-2.81
2022-11-28T22:54:00.368Z,-2.36
2022-11-28T22:56:30.308Z,-2.27
2022-11-28T22:58:59.153Z,-2.54
2022-11-28T23:01:31.159Z,-2.32
2022-11-28T23:03:59.652Z,-2.47
2022-11-28T23:06:29.799Z,-2.54
2022-11-28T23:08:58.970Z,-2.54
2022-11-28T23:11:28.937Z,-2.57
2022-11-28T23:13:56.810Z,-2.43
2022-11-28T23:16:39.066Z,-2.26
2022-11-28T23:19:11.012Z,-2.35
2022-11-28T23:21:40.369Z,-2.12
2022-11-28T23:24:12.417Z,-2.06
2022-11-28T23:26:39.466Z,-1.99
2022-11-28T23:29:06.650Z,-1.90
2022-11-28T23:31:37.656Z,-1.88
2022-11-28T23:34:05.695Z,-1.82
2022-11-28T23:36:42.645Z,-2.41
2022-11-28T23:39:14.321Z,-2.41
2022-11-28T23:41:42.506Z,-2.33
2022-11-28T23:44:13.753Z,-2.65
2022-11-28T23:46:41.753Z,-2.44
2022-11-28T23:49:09.607Z,-1.93
2022-11-28T23:51:37.128Z,-1.89
2022-11-28T23:54:04.425Z,-2.32
2022-11-28T23:56:34.777Z,-2.58
2022-11-28T23:59:04.662Z,-2.19
